Niagara Falls International Airport Niagara Falls US
ICAO: KIAG
IATA: IAG
Category: Medium
Scheduled Services: No

Elevation: 589 ft
TransAlt. 18000 ft.

Airport Communications:
BUFFALO APP/DEP:126.5
ATIS:120.8
CLNC DEL:119.25
CTAF:118.5
GND:121.7
ANG OPS:26.19
914 AW COMD POST:34.002
PTD:37.22
TWR:118.5
UNICOM:122.95

KIAG Zoom In..

If you have problems with the map follow the link
https://www.worldairports.se/pages/airport.php?
ICAO=KIAG

Runways:

(A) RW 06 length 5188 ft width 150 ft
---- / hdg 60

(B) RW 10L length 9829 ft width 150 ft
---- / hdg 100

(C) RW 10R length 3973 ft width 75 ft
---- / hdg 100

(D) RW 24 length 5188 ft width 150 ft
---- / hdg 240

(E) RW 28L length 3973 ft width 75 ft
---- / hdg 280

(F) RW 28R length 9829 ft width 150 ft
ILS 110.10 / hdg 280

Location; KIAG
Day. 20 / Time. 20.53 Zulu
* Altimeter: 30.04
* Temperature: 01° c. 33.8°f.
* Wind from: 130° Speed 11 kn.
Dewpoint: -02° c.
Visibility: 9 Statute Miles.
Clouds: Scattered 900 ft.
Clouds: Broken 1600 ft.
Clouds: Overcast 2100 ft.

KIAG 202053Z 13011KT 9SM SCT009 BKN016 OVC021 01/M02 A3004 RMK AO2 UPB15E25SNE15 SLP192 P0000 60000 T00061022 56048 $


Wind From 130°
Speed 11 kn.

 
 
jpsmedia.com for Web Design worldairports.se 2019   terms of use